Terminal Aerodrome Forecast
Issued by NWS

Current Version | Previous Version | Graphics & Text | Print | Product List | Glossary On
Versions: 1 2 3 4 5 6 7 8 9 10 11 12 13 14 15 16 17 18 19 20 21
000
FTUS41 KRNK 211753
TAFLWB
TAF
KLWB 211753Z 2118/2218 22009KT P6SM BKN050
      TEMPO 2118/2122 4SM -SHRA OVC025
     FM212300 23005KT P6SM BKN050
     FM220100 VRB03KT P6SM BKN025
     FM220600 VRB03KT P6SM BKN008
     FM221700 21006KT P6SM OVC050=

USA.gov is the U.S. government's official web portal to all federal, state and local government web resources and services.